Dolgeville, New York
Current Conditions -  °F | °C
As of 3:55 PM on Thursday 27 Nov 2014 (Local Time) from KNY0 Reporting Station
Overcast Overcast  
Wind Chill: 21°   Ceiling: 600
Heat Index: 28°   Visibility: 2.5mi
Dew Point: 26°   Wind: 6mph
Humidity: 94%   Direction: 240°WSW
Pressure: 29.98"   Gusts: NA
Location:  43.1°N, 74.77°W
Report Text: KNY0 272055Z AUTO 24005KT 2 1/2SM OVC006 M02/M03 A2998 RMK AO2 T10251033
Loading
Personal Weather Stations






























Interactive Weather Map New forecast layout! Learn more

10-Day Weather Forecast

Advertisements
Track Severe Weather on mobile